Time;durP1;ratioP1;P1;durP2;ratioP2;P2;SDS_P1;SDS_P2;PMS_P1;PMS_P2;Temp;Humidity;BMP_temperature;BMP_pressure;BME280_temperature;BME280_humidity;BME280_pressure;Samples;Min_cycle;Max_cycle;Signal;HPM_P1;HPM_P2
2023/08/07 00:01:33;;;;;;;0.32;0.32;;;;;;;15.57;86.83;98613.78;5095173;28;20540;-69
2023/08/07 00:04:02;;;;;;;0.50;0.50;;;;;;;15.57;86.62;98620.66;5095660;28;20040;-69
2023/08/07 00:06:31;;;;;;;0.40;0.40;;;;;;;15.54;86.60;98616.47;5095525;28;20134;-69
2023/08/07 00:09:00;;;;;;;0.40;0.40;;;;;;;15.53;86.24;98617.34;5095321;28;20136;-69
2023/08/07 00:11:30;;;;;;;0.40;0.40;;;;;;;15.52;86.23;98615.69;5093919;28;20047;-68
2023/08/07 00:14:00;;;;;;;0.35;0.35;;;;;;;15.49;86.09;98614.97;5095315;28;20505;-69
2023/08/07 00:16:29;;;;;;;0.30;0.30;;;;;;;15.47;86.44;98617.59;5095628;28;20392;-69
2023/08/07 00:18:58;;;;;;;0.30;0.30;;;;;;;15.44;86.27;98622.81;5095053;28;20044;-69
2023/08/07 00:21:27;;;;;;;0.35;0.35;;;;;;;15.43;85.96;98626.25;5094827;28;20486;-69
2023/08/07 00:23:56;;;;;;;0.30;0.30;;;;;;;15.40;86.03;98629.78;5094824;28;20052;-70
2023/08/07 00:26:25;;;;;;;0.40;0.40;;;;;;;15.44;86.31;98630.53;5094097;28;20036;-70
2023/08/07 00:28:54;;;;;;;0.30;0.30;;;;;;;15.42;86.30;98634.91;5094530;28;20043;-70
2023/08/07 00:31:24;;;;;;;0.43;0.43;;;;;;;15.44;86.00;98633.09;5094120;28;20469;-69
2023/08/07 00:33:55;;;;;;;0.40;0.40;;;;;;;15.49;86.10;98620.94;5095016;28;20101;-69
2023/08/07 00:36:25;;;;;;;0.32;0.32;;;;;;;15.53;86.40;98637.94;5094743;28;20478;-68
2023/08/07 00:38:54;;;;;;;0.40;0.40;;;;;;;15.57;86.17;98633.53;5093179;28;20102;-69
2023/08/07 00:41:23;;;;;;;0.30;0.30;;;;;;;15.58;86.26;98651.47;5095005;28;20481;-70
2023/08/07 00:43:52;;;;;;;0.40;0.40;;;;;;;15.59;86.13;98648.00;5093609;28;20343;-69
2023/08/07 00:46:24;;;;;;;0.32;0.32;;;;;;;15.57;85.98;98654.09;5094535;28;20541;-69
2023/08/07 00:48:54;;;;;;;0.32;0.32;;;;;;;15.54;85.97;98652.47;5094508;28;20101;-69
2023/08/07 00:51:24;;;;;;;0.30;0.30;;;;;;;15.58;85.78;98656.59;5094418;28;20044;-69
2023/08/07 00:53:55;;;;;;;5.00;0.70;;;;;;;15.58;85.55;98661.75;5094362;28;20043;-69
2023/08/07 00:56:25;;;;;;;0.30;0.30;;;;;;;15.54;85.05;98649.91;5094650;28;20073;-69
2023/08/07 00:58:55;;;;;;;0.40;0.40;;;;;;;15.55;85.36;98654.13;5094415;28;20098;-69
2023/08/07 01:01:26;;;;;;;0.30;0.30;;;;;;;15.59;85.22;98658.28;5094223;28;20401;-69
2023/08/07 01:03:56;;;;;;;0.45;0.45;;;;;;;15.57;85.49;98654.94;5094463;28;20502;-68
2023/08/07 01:06:24;;;;;;;0.30;0.30;;;;;;;15.56;85.59;98658.41;5094285;28;20105;-69
2023/08/07 01:08:54;;;;;;;;;;;;;;;15.55;85.53;98658.47;5094647;28;20401;-68
2023/08/07 01:11:37;;;;;;;0.32;0.32;;;;;;;15.49;85.23;98659.53;5110144;28;19920;-68
2023/08/07 01:14:15;;;;;;;0.30;0.30;;;;;;;15.53;85.60;98661.06;5094430;28;20040;-68
2023/08/07 01:16:49;;;;;;;0.40;0.40;;;;;;;15.52;85.48;98667.13;5094453;28;20040;-68
2023/08/07 01:19:24;;;;;;;0.50;0.50;;;;;;;15.46;85.48;98664.75;5094287;28;20051;-69
2023/08/07 01:22:08;;;;;;;0.35;0.35;;;;;;;15.50;85.85;98655.22;5093982;28;20046;-69
2023/08/07 01:24:40;;;;;;;0.40;0.40;;;;;;;15.44;85.61;98658.81;5093829;28;20048;-68
2023/08/07 01:27:20;;;;;;;0.30;0.30;;;;;;;15.41;85.67;98658.91;5093854;28;20478;-69
2023/08/07 01:29:59;;;;;;;0.30;0.30;;;;;;;15.36;86.06;98655.66;5093816;28;20078;-68
2023/08/07 01:32:35;;;;;;;0.43;0.43;;;;;;;15.30;85.81;98650.75;5093886;28;20052;-69
2023/08/07 01:35:08;;;;;;;0.40;0.40;;;;;;;15.26;85.79;98659.50;5092848;28;20044;-68
2023/08/07 01:37:42;;;;;;;0.50;0.50;;;;;;;15.22;85.81;98663.91;5093623;28;20062;-69
2023/08/07 01:40:12;;;;;;;1.25;0.90;;;;;;;15.25;85.90;98665.53;5092457;28;20052;-68
2023/08/07 01:42:42;;;;;;;0.30;0.30;;;;;;;15.23;86.24;98672.44;5092985;28;20097;-68
2023/08/07 01:45:11;;;;;;;0.38;0.38;;;;;;;15.21;86.46;98674.25;5092437;28;20037;-68
2023/08/07 01:47:40;;;;;;;0.43;0.43;;;;;;;15.19;86.34;98676.00;5093564;28;20131;-68
2023/08/07 01:50:09;;;;;;;0.38;0.38;;;;;;;15.19;86.15;98673.44;5092471;28;20056;-68
2023/08/07 01:52:40;;;;;;;0.45;0.45;;;;;;;15.25;86.52;98678.38;5094453;28;20230;-68
2023/08/07 01:55:09;;;;;;;0.32;0.32;;;;;;;15.29;86.33;98675.63;5094122;28;20043;-68
2023/08/07 01:57:38;;;;;;;;;;;;;;;15.29;86.38;98669.63;5093852;28;20102;-68
2023/08/07 02:00:08;;;;;;;0.35;0.35;;;;;;;15.31;86.42;98680.69;5093561;28;19919;-69
2023/08/07 02:02:42;;;;;;;0.40;0.40;;;;;;;15.23;86.04;98675.88;5093451;28;20397;-68
2023/08/07 02:05:12;;;;;;;0.30;0.30;;;;;;;15.16;86.18;98676.13;5093508;28;20044;-69
2023/08/07 02:07:43;;;;;;;0.40;0.40;;;;;;;15.14;86.61;98677.91;5092427;28;20565;-68
2023/08/07 02:10:12;;;;;;;0.30;0.30;;;;;;;15.14;86.73;98675.34;5092553;28;20044;-68
2023/08/07 02:12:41;;;;;;;0.40;0.40;;;;;;;15.14;86.87;98675.34;5093438;28;20097;-68
2023/08/07 02:15:11;;;;;;;0.30;0.30;;;;;;;15.21;86.84;98682.75;5092542;28;20131;-68
2023/08/07 02:17:41;;;;;;;0.30;0.30;;;;;;;15.15;86.82;98677.00;5092451;28;20052;-67
2023/08/07 02:20:11;;;;;;;0.70;0.70;;;;;;;15.15;86.85;98679.59;5093343;28;20048;-69
2023/08/07 02:22:42;;;;;;;0.40;0.40;;;;;;;15.14;86.49;98685.63;5092462;28;20424;-67
2023/08/07 02:25:10;;;;;;;0.30;0.30;;;;;;;15.12;86.21;98690.81;5093646;28;20056;-67
2023/08/07 02:27:39;;;;;;;0.40;0.40;;;;;;;15.13;86.66;98689.09;5092057;28;20036;-67
2023/08/07 02:30:09;;;;;;;0.30;0.30;;;;;;;15.14;86.84;98686.44;5093602;28;20032;-67
2023/08/07 02:32:38;;;;;;;0.30;0.30;;;;;;;15.13;86.31;98689.09;5093552;28;20128;-69
2023/08/07 02:35:08;;;;;;;0.40;0.40;;;;;;;15.08;86.43;98690.97;5093159;28;20060;-66
2023/08/07 02:37:37;;;;;;;;;;;;;;;15.06;86.20;98677.34;5093827;28;20058;-66
2023/08/07 02:40:08;;;;;;;;;;;;;;;15.10;85.82;98677.19;5093322;28;20426;-65
2023/08/07 02:42:37;;;;;;;0.30;0.30;;;;;;;15.13;85.74;98678.81;5109461;28;19920;-67
2023/08/07 02:45:07;;;;;;;0.40;0.40;;;;;;;15.13;85.97;98676.22;5093119;28;20051;-68
2023/08/07 02:47:36;;;;;;;0.40;0.40;;;;;;;15.16;85.60;98676.13;5092124;28;20046;-66
2023/08/07 02:50:06;;;;;;;0.43;0.43;;;;;;;15.18;85.80;98677.75;5092739;28;20047;-66
2023/08/07 02:52:35;;;;;;;0.30;0.30;;;;;;;15.20;85.96;98682.84;5095870;28;20036;-67
2023/08/07 02:55:04;;;;;;;0.30;0.30;;;;;;;15.22;85.43;98683.63;5097205;28;20036;-66
2023/08/07 02:57:35;;;;;;;0.30;0.30;;;;;;;15.27;85.69;98682.56;5096814;28;20135;-65
2023/08/07 03:00:06;;;;;;;0.40;0.40;;;;;;;15.32;85.76;98690.09;5096867;28;20046;-67
2023/08/07 03:02:35;;;;;;;0.40;0.40;;;;;;;15.29;85.73;98679.94;5096534;28;20040;-66
2023/08/07 03:05:04;;;;;;;0.30;0.30;;;;;;;15.31;85.87;98688.41;5096807;28;20406;-66
2023/08/07 03:07:33;;;;;;;0.28;0.28;;;;;;;15.33;85.70;98681.53;5096548;28;20486;-67
2023/08/07 03:10:02;;;;;;;0.30;0.30;;;;;;;15.29;85.42;98695.34;5096324;28;20051;-66
2023/08/07 03:12:32;;;;;;;0.30;0.30;;;;;;;15.26;85.20;98692.91;5095408;28;20028;-66
2023/08/07 03:15:02;;;;;;;0.30;0.30;;;;;;;15.20;84.83;98695.69;5096332;28;20072;-66
2023/08/07 03:17:31;;;;;;;0.35;0.35;;;;;;;15.21;85.17;98689.66;5095127;28;20075;-66
2023/08/07 03:20:00;;;;;;;0.40;0.40;;;;;;;15.20;84.64;98690.53;5095091;28;20066;-66
2023/08/07 03:22:29;;;;;;;0.70;0.70;;;;;;;15.22;84.86;98691.31;5096099;28;20040;-66
2023/08/07 03:24:58;;;;;;;0.43;0.43;;;;;;;15.22;84.60;98693.88;5095035;28;20067;-66
2023/08/07 03:27:28;;;;;;;0.40;0.40;;;;;;;15.21;84.65;98689.66;5096381;28;20831;-66
2023/08/07 03:29:56;;;;;;;0.40;0.40;;;;;;;15.24;84.74;98698.09;5096016;28;20040;-66
2023/08/07 03:32:31;;;;;;;0.30;0.30;;;;;;;15.22;84.85;98696.47;5078154;28;20048;-66
2023/08/07 03:35:01;;;;;;;0.40;0.40;;;;;;;15.21;84.87;98694.81;5094720;28;20505;-67
2023/08/07 03:37:29;;;;;;;0.40;0.40;;;;;;;15.20;84.55;98695.69;5095830;28;20044;-66
2023/08/07 03:39:58;;;;;;;0.30;0.30;;;;;;;15.25;84.64;98698.94;5095667;28;20048;-66
2023/08/07 03:42:27;;;;;;;0.80;0.77;;;;;;;15.24;84.54;98708.38;5095975;28;20063;-66
2023/08/07 03:44:57;;;;;;;0.32;0.32;;;;;;;15.22;84.85;98705.03;5094547;28;20054;-66
2023/08/07 03:47:27;;;;;;;0.40;0.40;;;;;;;15.26;84.55;98705.78;5077263;28;20056;-66
2023/08/07 03:49:59;;;;;;;0.40;0.40;;;;;;;15.25;84.46;98709.22;5095875;28;20048;-66
2023/08/07 03:52:28;;;;;;;0.47;0.47;;;;;;;15.22;84.29;98711.88;5095072;28;20047;-66
2023/08/07 03:54:57;;;;;;;0.35;0.35;;;;;;;15.17;84.09;98706.06;5094662;28;20046;-66
2023/08/07 03:57:26;;;;;;;0.40;0.40;;;;;;;15.19;83.79;98709.41;5096617;28;20040;-66
2023/08/07 03:59:56;;;;;;;0.50;0.50;;;;;;;15.17;83.61;98706.06;5094144;28;20043;-66
2023/08/07 04:02:27;;;;;;;0.50;0.50;;;;;;;15.14;83.68;98706.19;5095263;28;20040;-66
2023/08/07 04:04:57;;;;;;;0.30;0.30;;;;;;;15.19;83.69;98709.41;5094221;28;20434;-66
2023/08/07 04:07:27;;;;;;;0.40;0.40;;;;;;;15.19;83.46;98704.28;5095253;28;20498;-66
2023/08/07 04:09:56;;;;;;;0.40;0.40;;;;;;;15.21;83.52;98708.47;5128482;27;20044;-66
2023/08/07 04:12:24;;;;;;;0.40;0.40;;;;;;;15.19;83.51;98699.13;5094056;28;20040;-66
2023/08/07 04:14:54;;;;;;;0.20;0.20;;;;;;;15.20;83.45;98716.25;5111131;28;20063;-64
2023/08/07 04:17:23;;;;;;;0.30;0.30;;;;;;;15.23;83.35;98706.72;5095578;28;20402;-65
2023/08/07 04:19:52;;;;;;;0.38;0.38;;;;;;;15.19;83.20;98699.13;5095302;28;20569;-66
2023/08/07 04:22:20;;;;;;;0.40;0.40;;;;;;;15.24;82.89;98698.09;5094844;28;20486;-67
2023/08/07 04:24:51;;;;;;;0.40;0.40;;;;;;;15.29;82.62;98701.34;5095498;28;20424;-66
2023/08/07 04:27:20;;;;;;;0.55;0.55;;;;;;;15.31;82.14;98703.84;5093741;28;20052;-65
2023/08/07 04:29:49;;;;;;;0.40;0.40;;;;;;;15.32;82.10;98706.38;5094888;28;20548;-66
2023/08/07 04:32:17;;;;;;;0.40;0.40;;;;;;;15.33;81.72;98696.94;5093536;28;20101;-66
2023/08/07 04:34:46;;;;;;;0.40;0.40;;;;;;;15.32;81.68;98696.09;5095342;28;20044;-66
2023/08/07 04:37:15;;;;;;;0.50;0.50;;;;;;;15.35;80.98;98695.16;5094674;28;20070;-64
2023/08/07 04:39:44;;;;;;;0.40;0.40;;;;;;;15.30;80.74;98702.19;5094514;28;20051;-64
2023/08/07 04:42:15;;;;;;;0.40;0.40;;;;;;;15.32;80.50;98703.81;5094753;28;20508;-64
2023/08/07 04:44:44;;;;;;;0.40;0.40;;;;;;;15.37;79.91;98701.06;5094596;28;20048;-66
2023/08/07 04:47:13;;;;;;;0.30;0.30;;;;;;;15.36;79.81;98696.81;5094833;28;20044;-65
2023/08/07 04:49:42;;;;;;;0.47;0.47;;;;;;;15.39;80.18;98702.69;5094750;28;20473;-65
2023/08/07 04:52:11;;;;;;;0.40;0.40;;;;;;;15.36;80.13;98707.94;5094720;28;20048;-66
2023/08/07 04:54:52;;;;;;;5.93;0.75;;;;;;;15.26;80.07;98709.16;5094392;28;20055;-66
2023/08/07 04:57:23;;;;;;;0.40;0.40;;;;;;;15.26;80.34;98710.91;5094408;28;20041;-66
2023/08/07 04:59:51;;;;;;;0.50;0.50;;;;;;;15.28;80.38;98709.13;5094313;28;20052;-64
2023/08/07 05:02:20;;;;;;;0.40;0.40;;;;;;;15.32;80.92;98705.53;5094481;28;20035;-65
2023/08/07 05:04:49;;;;;;;0.43;0.43;;;;;;;15.32;80.86;98710.69;5093096;28;20402;-65
2023/08/07 05:07:18;;;;;;;0.57;0.57;;;;;;;15.36;80.83;98720.78;5094284;28;20046;-65
2023/08/07 05:09:49;;;;;;;0.30;0.30;;;;;;;15.35;80.91;98713.16;5094164;28;20040;-66
2023/08/07 05:12:18;;;;;;;0.40;0.40;;;;;;;15.35;80.87;98715.72;5094176;28;20634;-65
2023/08/07 05:14:48;;;;;;;3.63;0.70;;;;;;;15.37;80.78;98724.22;5093763;28;20097;-66
2023/08/07 05:17:17;;;;;;;0.40;0.40;;;;;;;15.41;81.02;98715.50;5094318;28;20048;-65
2023/08/07 05:19:46;;;;;;;0.40;0.40;;;;;;;15.46;81.40;98723.06;5094366;28;20040;-65
2023/08/07 05:22:15;;;;;;;0.30;0.30;;;;;;;15.42;81.22;98719.75;5093906;28;20050;-66
2023/08/07 05:24:45;;;;;;;0.40;0.40;;;;;;;15.38;81.59;98726.72;5094363;28;20044;-65
2023/08/07 05:27:14;;;;;;;1.02;0.95;;;;;;;15.36;81.14;98732.81;5094204;28;20627;-65
2023/08/07 05:29:44;;;;;;;0.37;0.37;;;;;;;15.36;81.72;98725.09;5093806;28;20044;-64
2023/08/07 05:32:15;;;;;;;0.38;0.38;;;;;;;15.43;81.48;98734.25;5093846;28;20295;-65
2023/08/07 05:34:45;;;;;;;0.30;0.30;;;;;;;15.47;81.53;98735.88;5093667;28;20040;-65
2023/08/07 05:37:13;;;;;;;;;;;;;;;15.50;81.52;98729.81;5094109;28;20032;-67
2023/08/07 05:39:42;;;;;;;0.30;0.30;;;;;;;15.52;81.23;98741.72;5092323;28;20343;-65
2023/08/07 05:42:12;;;;;;;0.50;0.50;;;;;;;15.56;81.25;98745.00;5094168;28;20047;-65
2023/08/07 05:44:41;;;;;;;0.40;0.40;;;;;;;15.59;81.07;98735.44;5093483;28;20036;-64
2023/08/07 05:47:09;;;;;;;0.40;0.40;;;;;;;15.62;81.14;98749.94;5093763;28;20063;-65
2023/08/07 05:49:40;;;;;;;0.63;0.63;;;;;;;15.66;80.87;98744.63;5093865;28;20393;-66
2023/08/07 05:52:09;;;;;;;0.45;0.45;;;;;;;15.74;80.84;98750.31;5094248;28;20086;-65
2023/08/07 05:54:38;;;;;;;0.37;0.37;;;;;;;15.80;80.75;98747.53;5093546;28;20051;-62
2023/08/07 05:57:07;;;;;;;0.53;0.53;;;;;;;15.79;80.42;98758.69;5093518;28;20326;-66
2023/08/07 05:59:36;;;;;;;0.60;0.60;;;;;;;15.75;79.94;98753.72;5093494;28;20693;-65
2023/08/07 06:02:05;;;;;;;0.38;0.38;;;;;;;15.75;80.00;98759.72;5093827;28;20443;-66
2023/08/07 06:04:34;;;;;;;1.17;0.68;;;;;;;15.70;78.49;98759.03;5092958;28;20041;-63
2023/08/07 06:07:05;;;;;;;0.40;0.40;;;;;;;15.78;78.27;98759.63;5093742;28;20048;-68
2023/08/07 06:09:35;;;;;;;0.50;0.50;;;;;;;15.84;78.66;98759.38;5093497;28;20044;-64
2023/08/07 06:12:04;;;;;;;0.30;0.30;;;;;;;15.91;78.14;98762.56;5093385;28;20079;-66
2023/08/07 06:14:33;;;;;;;0.30;0.30;;;;;;;15.93;77.86;98769.31;5093278;28;20100;-65
2023/08/07 06:17:02;;;;;;;0.40;0.40;;;;;;;16.01;77.71;98766.47;5093423;28;20036;-65
2023/08/07 06:19:31;;;;;;;0.40;0.40;;;;;;;16.04;77.67;98769.78;5093327;28;20040;-64
2023/08/07 06:22:01;;;;;;;1.48;0.82;;;;;;;16.13;78.08;98765.16;5093120;28;20048;-66
2023/08/07 06:24:31;;;;;;;0.50;0.50;;;;;;;16.19;78.01;98777.81;5092151;28;20048;-65
2023/08/07 06:27:00;;;;;;;0.35;0.35;;;;;;;16.21;77.77;98773.44;5096002;28;20052;-64
2023/08/07 06:29:28;;;;;;;0.37;0.37;;;;;;;16.15;77.19;98760.81;5096503;28;20046;-65
2023/08/07 06:31:57;;;;;;;0.32;0.32;;;;;;;16.12;77.03;98760.94;5097035;28;20066;-66
2023/08/07 06:34:27;;;;;;;0.55;0.55;;;;;;;16.15;76.83;98771.13;5097376;28;20044;-66
2023/08/07 06:36:56;;;;;;;0.40;0.40;;;;;;;16.20;76.69;98774.34;5096977;28;20063;-66
2023/08/07 06:39:25;;;;;;;0.40;0.40;;;;;;;16.17;76.76;98770.16;5096773;28;20774;-65
2023/08/07 06:41:55;;;;;;;0.40;0.40;;;;;;;16.12;76.70;98771.22;5097324;28;20105;-66
2023/08/07 06:44:31;;;;;;;0.40;0.40;;;;;;;16.11;76.33;98765.25;5095859;28;20048;-66
2023/08/07 06:47:00;;;;;;;0.60;0.60;;;;;;;16.13;76.48;98772.88;5097225;28;20063;-69
2023/08/07 06:49:31;;;;;;;0.70;0.70;;;;;;;16.05;75.98;98774.03;5096963;28;20044;-65
2023/08/07 06:52:00;;;;;;;0.45;0.45;;;;;;;15.99;75.55;98774.25;5097497;28;20036;-66
2023/08/07 06:54:29;;;;;;;0.30;0.30;;;;;;;15.95;75.17;98775.28;5129562;27;20055;-66
2023/08/07 06:56:59;;;;;;;0.30;0.30;;;;;;;15.92;75.46;98775.38;5097125;28;20032;-65
2023/08/07 06:59:28;;;;;;;0.30;0.30;;;;;;;15.89;75.83;98784.94;5096709;28;20276;-66
2023/08/07 07:01:56;;;;;;;8.53;1.50;;;;;;;15.89;75.65;98790.94;5096743;28;20043;-65
2023/08/07 07:04:26;;;;;;;0.30;0.30;;;;;;;15.89;75.04;98795.22;5096689;28;20028;-65
2023/08/07 07:06:55;;;;;;;0.30;0.30;;;;;;;15.90;75.22;98792.63;5096568;28;20052;-66
2023/08/07 07:09:24;;;;;;;1.02;0.50;;;;;;;15.88;75.00;98803.88;5096349;28;20032;-66
2023/08/07 07:11:52;;;;;;;0.30;0.30;;;;;;;15.88;75.32;98799.53;5096462;28;20040;-65
2023/08/07 07:14:24;;;;;;;0.50;0.50;;;;;;;15.90;75.39;98808.06;5096211;28;20131;-65
2023/08/07 07:16:53;;;;;;;0.38;0.38;;;;;;;15.89;75.60;98801.22;5096590;28;20047;-67
2023/08/07 07:19:22;;;;;;;0.40;0.40;;;;;;;15.84;76.18;98802.28;5096457;28;20032;-67
2023/08/07 07:21:51;;;;;;;0.37;0.37;;;;;;;15.78;76.29;98805.94;5096241;28;20105;-66
2023/08/07 07:24:19;;;;;;;0.30;0.30;;;;;;;15.74;76.55;98812.06;5096133;28;20056;-65
2023/08/07 07:26:48;;;;;;;0.40;0.40;;;;;;;15.69;76.40;98819.09;5096586;28;20036;-65
2023/08/07 07:29:18;;;;;;;0.40;0.40;;;;;;;15.64;76.57;98820.16;5096331;28;20040;-65
2023/08/07 07:31:47;;;;;;;;;;;;;;;15.70;76.88;98825.94;5095448;28;20043;-65
2023/08/07 07:34:16;;;;;;;0.70;0.63;;;;;;;15.74;77.01;98837.78;5095923;28;19999;-68
2023/08/07 07:36:46;;;;;;;0.20;0.20;;;;;;;15.74;77.14;98829.25;5095237;28;20044;-68
2023/08/07 07:39:15;;;;;;;0.38;0.38;;;;;;;15.69;77.19;98842.25;5095861;28;20052;-66
2023/08/07 07:41:44;;;;;;;0.30;0.30;;;;;;;15.66;77.32;98842.38;5095715;28;20131;-66
2023/08/07 07:44:13;;;;;;;0.30;0.30;;;;;;;15.65;77.12;98843.25;5095953;28;20050;-66
2023/08/07 07:46:42;;;;;;;0.20;0.20;;;;;;;15.64;77.48;98849.31;5096078;28;20042;-66
2023/08/07 07:49:12;;;;;;;0.30;0.30;;;;;;;15.68;77.26;98850.88;5095683;28;20368;-67
2023/08/07 07:51:44;;;;;;;0.50;0.50;;;;;;;15.68;77.60;98848.31;5095651;28;20128;-66
2023/08/07 07:54:13;;;;;;;0.30;0.30;;;;;;;15.65;77.98;98856.13;5095774;28;20054;-65
2023/08/07 07:56:43;;;;;;;0.38;0.38;;;;;;;15.64;78.07;98866.47;5096049;28;20044;-66
2023/08/07 07:59:13;;;;;;;0.30;0.30;;;;;;;15.60;78.84;98863.16;5095474;28;20079;-65
2023/08/07 08:01:42;;;;;;;;;;;;;;;15.56;79.12;98861.59;5095756;28;20048;-66
2023/08/07 08:04:12;;;;;;;0.38;0.38;;;;;;;15.59;79.84;98869.22;5095281;28;19920;-65
2023/08/07 08:06:41;;;;;;;0.43;0.43;;;;;;;15.62;80.10;98876.78;5095599;28;20043;-66
2023/08/07 08:09:10;;;;;;;0.50;0.50;;;;;;;15.68;80.33;98874.03;5095835;28;20071;-66
2023/08/07 08:11:39;;;;;;;0.60;0.60;;;;;;;15.65;80.63;98879.28;5088784;28;20036;-64
2023/08/07 08:14:08;;;;;;;0.50;0.50;;;;;;;15.63;80.95;98883.63;5084473;28;20093;-65
2023/08/07 08:16:37;;;;;;;0.30;0.30;;;;;;;15.62;81.11;98884.50;5084842;28;20452;-67
2023/08/07 08:19:07;;;;;;;0.37;0.37;;;;;;;15.56;81.86;98887.31;5083129;28;20033;-67
2023/08/07 08:21:38;;;;;;;0.47;0.47;;;;;;;15.48;82.02;98889.28;5084369;28;20442;-68
2023/08/07 08:24:09;;;;;;;0.50;0.50;;;;;;;15.46;82.39;98885.94;5085206;28;20040;-68
2023/08/07 08:26:38;;;;;;;0.50;0.50;;;;;;;15.46;83.00;98890.22;5084578;28;20538;-71
2023/08/07 08:29:07;;;;;;;0.50;0.50;;;;;;;15.49;83.23;98896.13;5084119;28;20520;-68
2023/08/07 08:31:36;;;;;;;0.40;0.40;;;;;;;15.49;83.84;98902.97;5084925;28;20048;-66
2023/08/07 08:34:05;;;;;;;0.40;0.40;;;;;;;15.45;84.00;98897.13;5084064;28;20036;-66
2023/08/07 08:36:34;;;;;;;0.38;0.38;;;;;;;15.48;84.35;98902.13;5083668;28;20033;-67
2023/08/07 08:39:05;;;;;;;0.38;0.38;;;;;;;15.54;84.58;98907.09;5082753;28;20123;-69
2023/08/07 08:41:34;;;;;;;0.52;0.50;;;;;;;15.55;85.14;98903.63;5083071;28;20375;-69
2023/08/07 08:44:07;;;;;;;0.40;0.40;;;;;;;15.55;85.43;98908.75;5084176;28;20049;-67
2023/08/07 08:46:39;;;;;;;0.50;0.50;;;;;;;15.55;85.23;98910.50;5083029;28;20386;-68
2023/08/07 08:49:10;;;;;;;1.38;0.85;;;;;;;15.49;85.77;98915.84;5082553;28;20050;-67
2023/08/07 08:51:40;;;;;;;0.43;0.43;;;;;;;15.49;86.22;98916.69;5082180;28;20043;-68
2023/08/07 08:54:10;;;;;;;0.40;0.40;;;;;;;15.43;86.30;98914.28;5083357;28;20036;-65
2023/08/07 08:56:40;;;;;;;3.60;0.52;;;;;;;15.40;86.41;98915.22;5082407;28;20039;-66
2023/08/07 08:59:10;;;;;;;0.75;0.75;;;;;;;15.32;86.57;98918.94;5085064;28;20058;-66
2023/08/07 09:01:39;;;;;;;0.40;0.40;;;;;;;15.27;86.66;98925.94;5081061;28;20058;-65
2023/08/07 09:04:10;;;;;;;0.50;0.50;;;;;;;15.13;87.00;98930.69;5081694;28;20036;-66
2023/08/07 09:06:39;;;;;;;0.30;0.30;;;;;;;15.07;87.53;98923.19;5080973;28;20094;-67
2023/08/07 09:09:14;;;;;;;0.50;0.50;;;;;;;15.01;87.78;98925.91;5084975;28;20028;-68
2023/08/07 09:11:45;;;;;;;0.32;0.32;;;;;;;14.97;88.24;98925.16;5084166;28;20503;-67
2023/08/07 09:14:18;;;;;;;0.35;0.35;;;;;;;14.97;88.60;98921.78;5082677;28;20043;-68
2023/08/07 09:16:49;;;;;;;0.47;0.47;;;;;;;14.94;88.43;98920.13;5084747;28;20039;-68
2023/08/07 09:19:18;;;;;;;0.40;0.40;;;;;;;14.96;88.83;98927.78;5083398;28;20071;-68
2023/08/07 09:21:47;;;;;;;0.30;0.30;;;;;;;14.98;89.10;98931.16;5082193;28;20048;-69
2023/08/07 09:24:18;;;;;;;0.60;0.60;;;;;;;14.93;89.11;98927.88;5082419;28;20036;-68
2023/08/07 09:26:52;;;;;;;0.40;0.40;;;;;;;14.89;89.58;98926.28;5084359;28;20289;-68
2023/08/07 09:29:23;;;;;;;0.40;0.40;;;;;;;14.89;89.60;98934.84;5083469;28;20074;-67
2023/08/07 09:31:52;;;;;;;0.63;0.63;;;;;;;14.92;89.46;98926.22;5085331;28;20413;-67
2023/08/07 09:34:22;;;;;;;0.50;0.50;;;;;;;14.94;89.62;98937.28;5082038;28;20032;-67
2023/08/07 09:36:50;;;;;;;0.40;0.40;;;;;;;14.90;89.68;98938.28;5082444;28;20024;-67
2023/08/07 09:39:25;;;;;;;0.60;0.60;;;;;;;14.92;89.67;98937.34;5084200;28;20540;-65
2023/08/07 09:41:57;;;;;;;0.40;0.40;;;;;;;14.98;90.07;98941.44;5084870;28;20128;-66
2023/08/07 09:44:26;;;;;;;0.47;0.47;;;;;;;14.97;89.71;98934.63;5084495;28;20032;-67
2023/08/07 09:46:55;;;;;;;0.30;0.30;;;;;;;14.94;89.64;98940.69;5083991;28;20429;-66
2023/08/07 09:49:33;;;;;;;0.38;0.38;;;;;;;15.00;89.99;98935.34;5084168;28;20264;-66
2023/08/07 09:52:08;;;;;;;0.50;0.50;;;;;;;15.04;89.68;98943.81;5084193;28;20047;-67
2023/08/07 09:54:39;;;;;;;0.30;0.30;;;;;;;15.03;89.43;98949.84;5084230;28;20044;-67
2023/08/07 09:57:07;;;;;;;0.68;0.60;;;;;;;15.04;89.21;98956.69;5082428;28;20498;-65
2023/08/07 09:59:36;;;;;;;0.30;0.30;;;;;;;15.07;89.57;98949.69;5084221;28;20043;-68
2023/08/07 10:02:06;;;;;;;0.50;0.50;;;;;;;15.06;89.65;98949.75;5082376;28;20094;-67
2023/08/07 10:04:36;;;;;;;;;;;;;;;15.14;89.62;98958.09;5077896;28;20032;-68
2023/08/07 10:07:05;;;;;;;0.50;0.50;;;;;;;15.19;89.26;98961.31;5077309;28;19920;-71
2023/08/07 10:09:34;;;;;;;0.40;0.40;;;;;;;15.20;89.20;98963.03;5077359;28;20041;-66
2023/08/07 10:12:06;;;;;;;0.40;0.40;;;;;;;15.16;89.00;98971.72;5077323;28;20048;-67
2023/08/07 10:14:35;;;;;;;0.80;0.80;;;;;;;15.18;88.58;98969.94;5077525;28;20402;-69
2023/08/07 10:17:04;;;;;;;0.30;0.30;;;;;;;15.14;88.87;98974.31;5077368;28;20052;-67
2023/08/07 10:19:33;;;;;;;;;;;;;;;15.10;88.63;98982.19;5077615;28;20094;-66
2023/08/07 10:22:03;;;;;;;0.32;0.32;;;;;;;15.12;88.75;98985.53;5077340;28;19920;-68
2023/08/07 10:24:35;;;;;;;0.50;0.50;;;;;;;15.11;88.30;98978.72;5077531;28;20041;-67
2023/08/07 10:27:08;;;;;;;0.50;0.50;;;;;;;15.09;88.46;98981.31;5076892;28;20041;-68
2023/08/07 10:29:38;;;;;;;0.40;0.32;;;;;;;14.99;88.43;98985.09;5077111;28;20048;-66
2023/08/07 10:32:10;;;;;;;0.40;0.40;;;;;;;14.99;88.55;98982.50;5077200;28;20191;-66
2023/08/07 10:34:39;;;;;;;0.70;0.70;;;;;;;14.95;88.84;98983.47;5077149;28;20486;-66
2023/08/07 10:37:08;;;;;;;0.60;0.60;;;;;;;14.91;88.53;98981.88;5077023;28;20468;-66
2023/08/07 10:39:38;;;;;;;0.35;0.35;;;;;;;14.86;88.40;98988.88;5076682;28;20083;-66
2023/08/07 10:42:08;;;;;;;0.43;0.43;;;;;;;14.89;89.13;98988.81;5077158;28;20055;-67
2023/08/07 10:44:49;;;;;;;0.63;0.63;;;;;;;14.95;88.95;98987.78;5076685;28;20048;-67
2023/08/07 10:47:34;;;;;;;0.40;0.40;;;;;;;14.98;89.67;98982.53;5076486;28;20044;-66
2023/08/07 10:50:05;;;;;;;0.40;0.40;;;;;;;14.98;89.47;98979.97;5076593;28;20101;-68
2023/08/07 10:52:34;;;;;;;0.40;0.40;;;;;;;15.00;89.81;98984.19;5076546;28;20051;-67
2023/08/07 10:55:03;;;;;;;0.40;0.40;;;;;;;15.00;90.08;98981.63;5076727;28;20044;-67
2023/08/07 10:57:34;;;;;;;1.35;0.63;;;;;;;15.04;90.38;98982.38;5076417;28;20048;-68
2023/08/07 11:00:07;;;;;;;0.40;0.40;;;;;;;15.15;89.97;98985.44;5076348;28;20049;-68
2023/08/07 11:02:40;;;;;;;0.45;0.45;;;;;;;15.18;90.28;98987.94;5076616;28;20101;-67
2023/08/07 11:05:10;;;;;;;1.50;0.35;;;;;;;15.21;90.63;98982.72;5076826;28;20047;-65
2023/08/07 11:07:41;;;;;;;;;;;;;;;15.19;90.34;98984.47;5076489;28;20048;-65
2023/08/07 11:10:16;;;;;;;0.30;0.30;;;;;;;15.17;90.61;98993.97;5076838;28;20354;-66
2023/08/07 11:12:46;;;;;;;0.63;0.63;;;;;;;15.22;90.89;98992.09;5075858;28;20065;-64
2023/08/07 11:15:15;;;;;;;0.50;0.50;;;;;;;15.20;90.47;98988.72;5076474;28;20048;-66
2023/08/07 11:17:46;;;;;;;0.32;0.32;;;;;;;15.17;90.47;98991.38;5075936;28;20044;-65
2023/08/07 11:20:16;;;;;;;0.40;0.40;;;;;;;15.18;90.77;98993.94;5075954;28;20471;-67
2023/08/07 11:22:45;;;;;;;0.40;0.40;;;;;;;15.17;90.47;98993.97;5075964;28;20051;-67
2023/08/07 11:25:15;;;;;;;0.47;0.47;;;;;;;15.20;90.89;98999.00;5076173;28;20454;-66
2023/08/07 11:27:46;;;;;;;0.38;0.38;;;;;;;15.15;90.57;99003.44;5076008;28;20044;-65
2023/08/07 11:30:15;;;;;;;0.40;0.40;;;;;;;15.09;90.84;99007.03;5076081;28;20049;-65
2023/08/07 11:32:44;;;;;;;0.40;0.40;;;;;;;15.05;90.64;99014.88;5075209;28;20067;-66
2023/08/07 11:35:13;;;;;;;0.30;0.30;;;;;;;15.11;90.47;99007.84;5076135;28;20053;-65
2023/08/07 11:37:47;;;;;;;0.30;0.30;;;;;;;15.17;90.84;99014.53;5075624;28;20079;-65
2023/08/07 11:40:16;;;;;;;0.40;0.40;;;;;;;15.19;90.38;99023.88;5075711;28;20433;-67
2023/08/07 11:42:46;;;;;;;0.37;0.37;;;;;;;15.12;90.41;99013.81;5075820;28;20123;-70
2023/08/07 11:45:15;;;;;;;0.57;0.57;;;;;;;15.09;90.04;99012.16;5075617;28;20372;-67
2023/08/07 11:47:44;;;;;;;1.00;0.95;;;;;;;15.09;90.00;99030.16;5075500;28;20036;-66
2023/08/07 11:50:15;;;;;;;0.40;0.40;;;;;;;15.10;90.18;99021.56;5075750;28;20056;-67